Time;durP1;ratioP1;P1;durP2;ratioP2;P2;SDS_P1;SDS_P2;PMS_P1;PMS_P2;Temp;Humidity;BMP_temperature;BMP_pressure;BME280_temperature;BME280_humidity;BME280_pressure;Samples;Min_cycle;Max_cycle;Signal;HPM_P1;HPM_P2
2022/11/28 00:03:36;;;;;;;83.82;46.80;;;;;;;1.35;89.56;101603.91;3345195;82;21488;-73
2022/11/28 00:08:28;;;;;;;81.15;41.88;;;;;;;1.37;89.60;101604.89;3347840;82;21210;-73
2022/11/28 00:13:19;;;;;;;83.58;43.60;;;;;;;1.39;89.57;101605.00;3332256;84;22522;-74
2022/11/28 00:18:10;;;;;;;80.62;43.13;;;;;;;1.40;89.60;101611.52;3298244;84;22159;-74
2022/11/28 00:23:01;;;;;;;79.40;41.42;;;;;;;1.42;89.61;101605.22;3305068;84;20979;-74
2022/11/28 00:27:52;;;;;;;79.03;44.55;;;;;;;1.42;89.52;101600.09;3319219;84;21026;-74
2022/11/28 00:32:44;;;;;;;78.20;43.02;;;;;;;1.38;89.43;101600.28;3324658;83;21235;-74
2022/11/28 00:37:35;;;;;;;81.60;42.53;;;;;;;1.37;89.48;101597.20;3306840;84;21575;-74
2022/11/28 00:42:26;;;;;;;75.28;42.35;;;;;;;1.39;89.56;101598.59;3318445;83;21212;-74
2022/11/28 00:47:18;;;;;;;70.35;38.92;;;;;;;1.38;89.61;101593.88;3324053;84;21507;-74
2022/11/28 00:52:09;;;;;;;78.40;42.43;;;;;;;1.38;89.59;101588.75;3370846;82;20935;-74
2022/11/28 00:57:00;;;;;;;73.07;43.48;;;;;;;1.39;89.70;101591.79;3294623;84;20971;-75
2022/11/28 01:01:51;;;;;;;72.82;41.48;;;;;;;1.42;89.69;101587.28;3318657;84;20998;-74
2022/11/28 01:06:47;;;;;;;83.58;42.38;;;;;;;1.41;89.58;101582.52;3274664;84;21054;-74
2022/11/28 01:11:40;;;;;;;74.58;39.85;;;;;;;1.43;89.69;101586.48;3311267;83;21520;-74
2022/11/28 01:16:32;;;;;;;69.40;37.60;;;;;;;1.44;89.75;101578.02;3334242;83;21540;-74
2022/11/28 01:21:24;;;;;;;66.82;37.78;;;;;;;1.41;89.61;101577.80;3350133;83;21302;-74
2022/11/28 01:26:20;;;;;;;74.82;39.83;;;;;;;1.41;89.62;101576.12;3330687;83;21552;-74
2022/11/28 01:31:16;;;;;;;69.50;38.38;;;;;;;1.40;89.63;101569.23;3339131;83;21528;-73
2022/11/28 01:36:10;;;;;;;58.40;35.23;;;;;;;1.42;89.64;101566.38;3383611;83;20998;-73
2022/11/28 01:41:02;;;;;;;72.82;38.95;;;;;;;1.41;89.60;101557.30;3343433;83;21026;-74
2022/11/28 01:45:54;;;;;;;65.05;37.23;;;;;;;1.41;89.65;101558.58;3334682;83;21375;-74
2022/11/28 01:50:51;;;;;;;67.08;37.42;;;;;;;1.41;89.63;101550.49;3305747;83;21658;-74
2022/11/28 01:55:51;;;;;;;67.53;35.63;;;;;;;1.42;89.73;101549.72;3329484;83;21019;-74
2022/11/28 02:00:42;;;;;;;70.75;37.80;;;;;;;1.43;89.67;101547.67;3374325;82;21034;-74
2022/11/28 02:05:34;;;;;;;73.30;39.13;;;;;;;1.45;89.73;101535.84;3289155;83;21066;-74
2022/11/28 02:10:33;;;;;;;70.65;38.17;;;;;;;1.47;89.72;101540.67;3349074;83;21489;-74
2022/11/28 02:15:45;;;;;;;71.57;39.40;;;;;;;1.47;89.65;101525.70;3424485;81;20964;-74
2022/11/28 02:21:17;;;;;;;64.80;36.88;;;;;;;1.47;89.71;101515.04;3404386;82;20921;-74
2022/11/28 02:26:47;;;;;;;58.00;33.90;;;;;;;1.45;89.51;101516.62;3324278;83;21011;-74
2022/11/28 02:32:10;;;;;;;65.40;34.78;;;;;;;1.44;89.74;101511.39;3311066;85;21000;-74
2022/11/28 02:37:06;;;;;;;60.73;35.30;;;;;;;1.43;89.81;101513.07;3330187;85;21380;-74
2022/11/28 02:42:19;;;;;;;66.17;36.63;;;;;;;1.44;89.87;101513.55;3319724;85;21019;-74
2022/11/28 02:47:30;;;;;;;70.05;38.63;;;;;;;1.44;89.63;101508.83;3300440;83;21046;-73
2022/11/28 02:52:27;;;;;;;64.27;36.40;;;;;;;1.39;89.54;101513.62;3347490;85;20996;-74
2022/11/28 02:57:18;;;;;;;69.90;38.13;;;;;;;1.39;89.68;101510.19;3355211;84;21019;-74
2022/11/28 03:02:27;;;;;;;68.55;37.38;;;;;;;1.40;89.81;101509.41;3379638;82;21232;-74
2022/11/28 03:07:42;;;;;;;65.45;36.63;;;;;;;1.41;89.65;101507.33;3392862;82;20918;-74
2022/11/28 03:12:47;;;;;;;63.00;35.10;;;;;;;1.36;89.57;101514.73;3372674;84;21018;-74
2022/11/28 03:17:44;;;;;;;61.33;33.58;;;;;;;1.35;89.54;101506.94;3351915;84;21503;-74
2022/11/28 03:23:07;;;;;;;61.53;35.60;;;;;;;1.30;89.46;101502.77;3373477;84;21248;-74
2022/11/28 03:28:06;;;;;;;64.22;36.80;;;;;;;1.29;89.50;101507.42;3378991;84;21181;-74
2022/11/28 03:33:00;;;;;;;64.17;34.63;;;;;;;1.28;89.59;101499.22;3375737;84;21380;-74
2022/11/28 03:38:00;;;;;;;56.00;32.98;;;;;;;1.25;89.43;101495.16;3350336;83;21498;-74
2022/11/28 03:42:59;;;;;;;57.95;33.48;;;;;;;1.21;89.49;101494.48;3380764;83;21656;-74
2022/11/28 03:48:02;;;;;;;59.13;32.53;;;;;;;1.21;89.57;101494.48;3362567;82;21149;-74
2022/11/28 03:52:59;;;;;;;62.85;35.00;;;;;;;1.19;89.41;101498.61;3407118;82;21983;-74
2022/11/28 03:58:17;;;;;;;63.70;35.03;;;;;;;1.17;89.45;101498.91;3411853;82;21470;-74
2022/11/28 04:03:22;;;;;;;59.30;33.02;;;;;;;1.17;89.48;101492.50;3446640;81;21007;-74
2022/11/28 04:08:31;;;;;;;58.73;32.73;;;;;;;1.12;89.41;101493.06;3416346;81;21022;-74
2022/11/28 04:13:47;;;;;;;58.80;33.63;;;;;;;1.10;89.43;101489.91;3440611;81;21599;-74
2022/11/28 04:18:53;;;;;;;65.52;34.92;;;;;;;1.08;89.32;101490.20;3334843;83;21726;-73
2022/11/28 04:23:47;;;;;;;57.43;33.73;;;;;;;1.05;89.34;101497.67;3321888;84;21101;-74
2022/11/28 04:28:40;;;;;;;62.95;33.18;;;;;;;1.04;89.51;101485.64;3400707;81;21003;-74
2022/11/28 04:33:36;;;;;;;55.58;32.93;;;;;;;1.03;89.40;101479.64;3368001;82;21026;-74
2022/11/28 04:38:29;;;;;;;56.20;33.70;;;;;;;1.01;89.24;101477.77;3373319;83;21627;-74
2022/11/28 04:43:26;;;;;;;55.25;32.13;;;;;;;0.99;89.28;101473.82;3322615;84;21585;-74
2022/11/28 04:48:18;;;;;;;54.20;31.23;;;;;;;0.97;89.26;101474.48;3415366;82;20960;-74
2022/11/28 04:53:18;;;;;;;53.50;30.45;;;;;;;0.99;89.46;101480.22;3387129;82;20934;-74
2022/11/28 04:58:17;;;;;;;54.13;32.80;;;;;;;0.94;89.29;101467.50;3410091;81;20961;-74
2022/11/28 05:03:09;;;;;;;52.67;30.35;;;;;;;0.92;89.27;101469.07;3406372;82;20976;-74
2022/11/28 05:08:01;;;;;;;51.05;30.95;;;;;;;0.94;89.42;101479.02;3372367;82;21462;-74
2022/11/28 05:12:52;;;;;;;57.70;32.53;;;;;;;0.95;89.45;101484.65;3350372;82;21013;-74
2022/11/28 05:17:44;;;;;;;53.35;31.17;;;;;;;0.96;89.47;101482.56;3327824;83;21018;-75
2022/11/28 05:22:35;;;;;;;55.75;33.53;;;;;;;0.96;89.40;101483.84;3321685;83;21009;-74
2022/11/28 05:27:27;;;;;;;51.85;31.37;;;;;;;0.98;89.57;101478.84;3339009;83;20959;-74
2022/11/28 05:32:19;;;;;;;58.10;34.05;;;;;;;0.98;89.48;101483.55;3357882;83;21446;-74
2022/11/28 05:37:10;;;;;;;57.38;32.33;;;;;;;0.98;89.49;101479.71;3362873;83;21103;-74
2022/11/28 05:42:01;;;;;;;53.70;32.73;;;;;;;1.00;89.58;101489.66;3349374;83;21157;-74
2022/11/28 05:46:52;;;;;;;56.92;33.67;;;;;;;1.02;89.54;101485.94;3365006;83;20963;-74
2022/11/28 05:51:44;;;;;;;63.23;37.20;;;;;;;1.03;89.53;101479.64;3343175;82;21026;-74
2022/11/28 05:56:34;;;;;;;60.73;35.17;;;;;;;1.04;89.61;101473.75;3356724;83;21009;-75
2022/11/28 06:01:28;;;;;;;60.28;34.92;;;;;;;1.06;89.59;101477.70;3351255;83;21167;-74
2022/11/28 06:06:21;;;;;;;63.33;35.73;;;;;;;1.08;89.70;101474.84;3364923;83;21723;-74
2022/11/28 06:11:13;;;;;;;58.78;35.55;;;;;;;1.09;89.73;101474.03;3373725;83;21030;-75
2022/11/28 06:16:11;;;;;;;58.65;35.23;;;;;;;1.08;89.67;101480.84;3359608;82;21327;-74
2022/11/28 06:21:04;;;;;;;60.67;35.23;;;;;;;1.09;89.63;101480.07;3359586;82;21881;-74
2022/11/28 06:25:55;;;;;;;55.70;32.45;;;;;;;1.07;89.54;101482.92;3391594;82;20974;-74
2022/11/28 06:30:46;;;;;;;57.08;31.95;;;;;;;1.10;89.72;101488.23;3364110;82;21021;-74
2022/11/28 06:35:38;;;;;;;57.30;34.00;;;;;;;1.13;89.68;101489.73;3366722;82;21075;-75
2022/11/28 06:40:29;;;;;;;54.55;33.45;;;;;;;1.17;89.71;101487.37;3388662;82;20994;-74
2022/11/28 06:45:20;;;;;;;58.60;34.40;;;;;;;1.20;89.54;101495.25;3352570;83;21216;-74
2022/11/28 06:50:11;;;;;;;58.70;33.60;;;;;;;1.21;89.65;101493.19;3261960;85;21002;-73
2022/11/28 06:55:03;;;;;;;63.08;36.13;;;;;;;1.25;89.70;101493.89;3332870;83;20956;-74
2022/11/28 06:59:55;;;;;;;63.95;32.63;;;;;;;1.29;89.64;101493.33;3212828;85;20994;-74
2022/11/28 07:04:46;;;;;;;57.95;33.55;;;;;;;1.32;89.72;101490.95;3337133;83;20970;-74
2022/11/28 07:09:37;;;;;;;63.17;34.30;;;;;;;1.35;89.66;101492.84;3241368;85;21595;-75
2022/11/28 07:14:32;;;;;;;60.60;33.58;;;;;;;1.41;89.71;101497.08;3333525;82;21015;-74
2022/11/28 07:19:23;;;;;;;60.38;34.00;;;;;;;1.46;89.60;101494.43;3280091;84;21471;-74
2022/11/28 07:24:15;;;;;;;55.90;32.28;;;;;;;1.49;89.59;101489.52;3266782;84;20984;-74
2022/11/28 07:29:08;;;;;;;55.23;32.53;;;;;;;1.53;89.62;101497.49;3289752;84;21007;-74
2022/11/28 07:34:02;;;;;;;53.52;32.42;;;;;;;1.58;89.53;101489.23;3221868;84;21203;-74
2022/11/28 07:38:58;;;;;;;52.90;33.10;;;;;;;1.64;89.60;101492.19;3281556;84;21023;-74
2022/11/28 07:43:53;;;;;;;55.33;32.00;;;;;;;1.70;89.50;101479.79;3302722;84;21520;-74
2022/11/28 07:48:46;;;;;;;54.03;32.20;;;;;;;1.78;89.43;101477.30;3277367;84;20963;-74
2022/11/28 07:53:38;;;;;;;57.35;33.33;;;;;;;1.85;89.46;101478.59;3227289;85;20986;-74
2022/11/28 07:58:29;;;;;;;63.70;34.43;;;;;;;1.93;89.37;101480.36;3309881;84;21559;-74
2022/11/28 08:03:20;;;;;;;60.33;34.85;;;;;;;1.95;89.36;101479.69;3268487;84;21025;-74
2022/11/28 08:08:11;;;;;;;49.80;31.33;;;;;;;2.01;89.38;101485.60;3260419;86;20969;-74
2022/11/28 08:13:03;;;;;;;55.73;31.50;;;;;;;2.04;89.41;101485.40;3250845;85;20951;-74
2022/11/28 08:17:54;;;;;;;53.60;31.68;;;;;;;2.06;89.33;101481.25;3378909;84;20954;-74
2022/11/28 08:22:45;;;;;;;58.30;33.78;;;;;;;2.07;89.23;101479.56;3409459;82;21609;-74
2022/11/28 08:27:36;;;;;;;52.58;29.72;;;;;;;2.11;89.24;101482.84;3336779;82;21005;-73
2022/11/28 08:32:29;;;;;;;42.78;27.55;;;;;;;2.14;88.96;101483.41;3318149;82;20990;-73
2022/11/28 08:37:20;;;;;;;44.05;24.87;;;;;;;2.16;89.03;101477.98;3373590;82;21002;-73
2022/11/28 08:42:11;;;;;;;51.15;32.55;;;;;;;2.25;89.01;101475.98;3351114;82;21279;-73
2022/11/28 08:47:03;;;;;;;49.25;29.15;;;;;;;2.37;88.91;101475.47;3357176;82;21146;-74
2022/11/28 08:51:54;;;;;;;47.20;28.95;;;;;;;2.53;88.97;101479.00;3332077;82;21014;-73
2022/11/28 08:56:47;;;;;;;49.23;30.82;;;;;;;2.65;88.92;101479.34;3373408;82;21041;-74
2022/11/28 09:01:38;;;;;;;46.50;29.07;;;;;;;2.71;88.70;101481.80;3409167;82;20947;-74
2022/11/28 09:06:30;;;;;;;48.13;29.27;;;;;;;2.76;88.65;101481.69;3336720;82;21589;-73
2022/11/28 09:11:22;;;;;;;46.33;30.02;;;;;;;2.80;88.78;101475.53;3376848;82;21328;-73
2022/11/28 09:16:14;;;;;;;48.25;28.80;;;;;;;2.85;88.58;101474.54;3363651;83;21249;-74
2022/11/28 09:21:09;;;;;;;45.80;28.10;;;;;;;2.92;88.53;101467.69;3359896;83;21023;-73
2022/11/28 09:26:01;;;;;;;44.58;28.30;;;;;;;2.98;88.49;101460.33;3337534;83;21010;-74
2022/11/28 09:31:01;;;;;;;48.20;28.40;;;;;;;3.04;88.26;101458.15;3339446;83;20952;-74
2022/11/28 09:35:54;;;;;;;44.13;27.05;;;;;;;3.09;88.28;101462.25;3382986;83;21157;-73
2022/11/28 09:40:45;;;;;;;44.27;27.02;;;;;;;3.13;88.03;101450.09;3326718;83;22118;-74
2022/11/28 09:45:37;;;;;;;39.40;25.32;;;;;;;3.10;88.05;101448.62;3362904;82;21006;-74
2022/11/28 09:50:33;;;;;;;41.90;26.73;;;;;;;3.11;87.55;101443.08;3355037;83;20963;-72
2022/11/28 09:55:48;;;;;;;41.00;25.68;;;;;;;3.09;87.84;101433.11;3387572;83;21137;-73
2022/11/28 10:00:53;;;;;;;40.58;25.72;;;;;;;3.15;88.03;101437.31;3362567;83;21460;-73
2022/11/28 10:06:10;;;;;;;44.20;25.40;;;;;;;3.12;88.08;101424.30;3386575;83;21012;-73
2022/11/28 10:11:23;;;;;;;35.38;22.60;;;;;;;3.20;88.03;101425.62;3395694;83;21006;-73
2022/11/28 10:17:01;;;;;;;39.10;24.77;;;;;;;3.19;87.79;101421.30;3372898;83;21101;-73
2022/11/28 10:21:56;;;;;;;37.95;24.95;;;;;;;3.14;87.91;101418.85;3369135;83;21593;-72
2022/11/28 10:26:58;;;;;;;41.20;25.60;;;;;;;3.13;87.99;101418.35;3375553;83;21437;-73
2022/11/28 10:31:54;;;;;;;41.88;26.80;;;;;;;3.11;88.18;101413.12;3353143;83;21061;-73
2022/11/28 10:37:09;;;;;;;42.23;25.65;;;;;;;3.16;88.24;101417.25;3370512;83;20947;-73
2022/11/28 10:42:18;;;;;;;47.93;27.37;;;;;;;3.15;87.94;101415.09;3350837;83;20991;-72
2022/11/28 10:47:40;;;;;;;47.27;27.95;;;;;;;3.12;87.98;101408.89;3355304;83;20936;-74
2022/11/28 10:52:41;;;;;;;49.13;29.18;;;;;;;3.05;88.19;101405.94;3353686;83;21168;-73
2022/11/28 10:57:56;;;;;;;45.33;28.25;;;;;;;3.09;88.27;101403.16;3327140;83;21634;-74
2022/11/28 11:02:51;;;;;;;54.27;31.70;;;;;;;3.15;88.28;101391.05;3350006;83;20991;-74
2022/11/28 11:07:51;;;;;;;45.85;27.45;;;;;;;3.17;88.08;101384.35;3331197;83;20995;-75
2022/11/28 11:12:43;;;;;;;53.87;32.42;;;;;;;3.17;88.08;101387.80;3373651;83;20979;-75
2022/11/28 11:17:36;;;;;;;54.58;32.67;;;;;;;3.16;88.25;101383.84;3394235;82;21681;-74
2022/11/28 11:22:31;;;;;;;55.88;33.58;;;;;;;3.12;88.05;101386.64;3342061;82;21523;-75
2022/11/28 11:27:22;;;;;;;54.00;34.18;;;;;;;3.14;88.22;101391.88;3385323;82;21054;-75
2022/11/28 11:32:27;;;;;;;51.60;30.37;;;;;;;3.17;88.27;101387.80;3385229;82;21499;-74
2022/11/28 11:37:29;;;;;;;56.25;33.92;;;;;;;3.18;87.94;101379.67;3440620;81;21284;-74
2022/11/28 11:42:24;;;;;;;63.28;35.13;;;;;;;3.19;88.26;101387.89;3405861;82;21872;-74
2022/11/28 11:47:16;;;;;;;57.17;33.75;;;;;;;3.22;88.17;101394.09;3429557;82;20961;-73
2022/11/28 11:52:23;;;;;;;48.68;29.57;;;;;;;3.26;88.06;101387.44;3385547;82;20977;-74
2022/11/28 11:57:17;;;;;;;;;;;;;;;3.30;87.96;101389.37;3410833;82;21447;-74
2022/11/28 12:02:28;;;;;;;49.45;26.93;;;;;;;3.28;87.81;101390.98;3435173;82;20109;-74
2022/11/28 12:07:34;;;;;;;39.23;23.67;;;;;;;3.23;87.94;101393.68;3425700;82;21766;-74
2022/11/28 12:12:29;;;;;;;40.78;23.52;;;;;;;3.14;87.78;101397.02;3429967;82;20965;-74
2022/11/28 12:17:49;;;;;;;39.48;22.80;;;;;;;3.12;87.88;101393.06;3372923;82;21441;-74
2022/11/28 12:22:51;;;;;;;38.55;22.25;;;;;;;3.12;87.95;101406.31;3409201;82;20986;-74
2022/11/28 12:28:11;;;;;;;40.40;22.07;;;;;;;3.16;87.95;101387.70;3357406;82;21008;-73
2022/11/28 12:33:23;;;;;;;35.38;22.77;;;;;;;3.20;87.85;101385.41;3350646;82;21404;-74
2022/11/28 12:38:35;;;;;;;38.42;23.35;;;;;;;3.21;87.86;101386.28;3376139;82;20958;-74
2022/11/28 12:43:48;;;;;;;40.58;22.98;;;;;;;3.18;87.85;101386.10;3350514;82;22073;-75
2022/11/28 12:48:48;;;;;;;36.65;21.90;;;;;;;3.15;87.81;101381.69;3356618;82;21089;-74
2022/11/28 12:54:29;;;;;;;42.55;22.82;;;;;;;3.14;87.82;101380.31;3376312;82;20986;-74
2022/11/28 12:59:40;;;;;;;40.25;22.00;;;;;;;3.13;87.90;101377.23;3363187;82;22056;-75
2022/11/28 13:04:58;;;;;;;40.90;23.73;;;;;;;3.11;87.86;101381.00;3302929;84;21037;-74
2022/11/28 13:10:22;;;;;;;44.80;23.02;;;;;;;3.07;87.82;101384.61;3303124;84;20952;-75
2022/11/28 13:15:36;;;;;;;41.88;21.25;;;;;;;3.04;87.86;101374.64;3172807;88;20994;-75
2022/11/28 13:20:47;;;;;;;38.63;22.25;;;;;;;3.04;87.96;101383.64;3165304;89;21078;-75
2022/11/28 13:25:56;;;;;;;43.75;23.42;;;;;;;2.99;87.86;101374.77;3144067;89;21552;-75
2022/11/28 13:30:56;;;;;;;44.33;22.62;;;;;;;2.98;88.03;101390.09;3149982;88;21062;-75
2022/11/28 13:35:47;;;;;;;43.85;25.25;;;;;;;2.94;87.99;101386.45;3148314;89;21071;-76
2022/11/28 13:40:49;;;;;;;38.92;21.82;;;;;;;2.93;87.96;101381.23;3182507;87;21484;-74
2022/11/28 13:45:44;;;;;;;40.20;20.20;;;;;;;2.93;88.03;101391.09;3278567;84;20980;-73
2022/11/28 13:50:39;;;;;;;43.10;22.35;;;;;;;2.88;87.86;101383.55;3277721;84;21155;-74
2022/11/28 13:55:47;;;;;;;38.67;20.50;;;;;;;2.84;87.91;101386.70;3210995;87;21260;-73
2022/11/28 14:00:36;;;;;;;44.35;20.77;;;;;;;2.83;88.10;101381.10;3218147;87;21010;-74
2022/11/28 14:05:38;;;;;;;42.10;20.77;;;;;;;2.81;88.04;101376.28;3307733;84;21017;-74
2022/11/28 14:10:50;;;;;;;44.00;22.25;;;;;;;2.77;88.08;101376.50;3298282;84;21006;-75
2022/11/28 14:16:22;;;;;;;44.85;23.42;;;;;;;2.74;88.06;101371.58;3315529;83;23288;-73
2022/11/28 14:21:43;;;;;;;51.50;24.85;;;;;;;2.69;88.05;101361.02;3391298;82;21025;-74
2022/11/28 14:26:39;;;;;;;49.20;24.12;;;;;;;2.63;88.10;101365.40;3371733;83;20982;-74
2022/11/28 14:31:38;;;;;;;45.08;23.10;;;;;;;2.58;88.18;101362.95;3366896;83;21638;-73
2022/11/28 14:36:34;;;;;;;49.77;25.32;;;;;;;2.56;88.22;101359.41;3371392;83;21465;-74
2022/11/28 14:41:26;;;;;;;50.17;26.23;;;;;;;2.51;88.18;101357.38;3358724;83;21946;-73
2022/11/28 14:46:27;;;;;;;47.93;25.05;;;;;;;2.48;88.25;101365.35;3340945;83;21058;-73
2022/11/28 14:51:19;;;;;;;57.50;28.47;;;;;;;2.45;88.24;101360.05;3393358;82;21028;-73
2022/11/28 14:56:21;;;;;;;51.20;25.35;;;;;;;2.43;88.32;101359.45;3339920;83;20962;-73
2022/11/28 15:01:18;;;;;;;56.13;27.50;;;;;;;2.41;88.27;101350.78;3395199;83;21480;-72
2022/11/28 15:06:24;;;;;;;48.50;26.73;;;;;;;2.34;88.19;101339.66;3367730;82;22931;-73
2022/11/28 15:11:36;;;;;;;45.15;25.55;;;;;;;2.34;88.19;101339.66;3388024;83;20994;-73
2022/11/28 15:16:31;;;;;;;46.53;25.45;;;;;;;2.34;88.05;101347.36;3400756;83;21375;-73
2022/11/28 15:21:22;;;;;;;51.18;26.55;;;;;;;2.31;88.13;101348.45;3339180;83;21416;-72
2022/11/28 15:26:28;;;;;;;42.83;23.57;;;;;;;2.29;88.27;101353.11;3367685;83;21023;-73
2022/11/28 15:31:22;;;;;;;47.67;26.52;;;;;;;2.27;88.22;101353.42;3366537;83;22105;-73
2022/11/28 15:36:28;;;;;;;45.80;24.50;;;;;;;2.25;88.08;101344.75;3389557;83;21241;-73
2022/11/28 15:41:26;;;;;;;48.37;26.53;;;;;;;2.22;88.06;101353.94;3381516;83;20974;-73
2022/11/28 15:46:32;;;;;;;47.65;25.00;;;;;;;2.22;88.19;101359.95;3358996;83;21065;-73
2022/11/28 15:51:31;;;;;;;49.27;26.57;;;;;;;2.21;88.06;101352.16;3387658;83;21529;-72
2022/11/28 15:56:23;;;;;;;44.13;23.67;;;;;;;2.20;88.06;101358.97;3365043;83;21975;-73
2022/11/28 16:01:24;;;;;;;40.05;22.62;;;;;;;2.17;88.06;101353.64;3389254;83;21001;-73
2022/11/28 16:06:18;;;;;;;41.42;22.82;;;;;;;2.17;88.15;101353.64;3398607;83;20998;-73
2022/11/28 16:11:14;;;;;;;43.15;25.00;;;;;;;2.14;88.17;101353.45;3336432;83;20994;-74
2022/11/28 16:16:13;;;;;;;36.73;22.98;;;;;;;2.16;88.19;101350.98;3341134;83;20939;-73
2022/11/28 16:21:10;;;;;;;46.95;28.07;;;;;;;2.15;88.09;101350.10;3392420;83;21059;-74
2022/11/28 16:26:22;;;;;;;41.23;24.73;;;;;;;2.15;88.14;101347.54;3375055;83;21563;-73
2022/11/28 16:31:20;;;;;;;38.75;22.77;;;;;;;2.15;88.10;101350.10;3392881;83;20959;-74
2022/11/28 16:36:25;;;;;;;43.13;24.02;;;;;;;2.13;87.98;101345.28;3366561;83;20961;-74
2022/11/28 16:41:24;;;;;;;38.40;23.35;;;;;;;2.08;87.91;101345.39;3368431;83;21033;-73
2022/11/28 16:46:22;;;;;;;34.40;22.25;;;;;;;2.05;87.81;101346.48;3374697;83;21477;-74
2022/11/28 16:51:33;;;;;;;40.83;23.50;;;;;;;2.01;87.71;101350.94;3364561;83;21547;-74
2022/11/28 16:56:35;;;;;;;37.00;19.50;;;;;;;1.98;87.77;101363.56;3360801;83;21567;-73
2022/11/28 17:01:28;;;;;;;40.05;23.62;;;;;;;1.96;87.78;101360.02;3391181;83;20983;-74
2022/11/28 17:06:27;;;;;;;36.93;21.35;;;;;;;1.94;87.87;101361.61;3309988;83;21446;-74
2022/11/28 17:11:22;;;;;;;38.73;22.20;;;;;;;1.93;87.74;101363.67;3368994;83;22035;-74
2022/11/28 17:16:21;;;;;;;40.12;24.70;;;;;;;1.90;87.80;101361.81;3311190;82;21010;-74
2022/11/28 17:21:14;;;;;;;38.45;22.95;;;;;;;1.88;87.81;101366.84;3326032;83;20983;-74
2022/11/28 17:26:06;;;;;;;32.45;21.60;;;;;;;1.88;87.76;101372.37;3349582;83;21014;-74
2022/11/28 17:31:28;;;;;;;38.95;23.87;;;;;;;1.89;87.79;101381.83;3335002;84;21046;-75
2022/11/28 17:36:19;;;;;;;34.95;21.80;;;;;;;1.88;87.67;101380.95;3390278;82;21168;-74
2022/11/28 17:41:13;;;;;;;42.03;24.07;;;;;;;1.85;87.64;101382.44;3296520;83;21010;-74
2022/11/28 17:46:07;;;;;;;34.85;21.12;;;;;;;1.84;87.45;101376.43;3325316;83;20959;-75
2022/11/28 17:50:58;;;;;;;41.55;24.52;;;;;;;1.79;87.08;101384.59;3389858;82;20942;-74
2022/11/28 17:55:57;;;;;;;38.30;23.60;;;;;;;1.71;87.16;101379.87;3317324;83;20962;-74
2022/11/28 18:00:45;;;;;;;42.95;25.17;;;;;;;1.68;87.14;101376.23;3293847;83;21785;-74
2022/11/28 18:05:40;;;;;;;43.00;27.32;;;;;;;1.63;87.04;101377.64;3379452;83;21014;-73
2022/11/28 18:10:32;;;;;;;45.43;27.73;;;;;;;1.60;86.91;101386.41;3329579;83;21070;-74
2022/11/28 18:15:23;;;;;;;41.98;25.88;;;;;;;1.54;86.89;101390.75;3367830;84;21046;-74
2022/11/28 18:20:15;;;;;;;41.42;26.68;;;;;;;1.49;86.96;101389.16;3355701;83;21052;-74
2022/11/28 18:25:08;;;;;;;42.65;26.02;;;;;;;1.45;86.83;101392.33;3353434;83;21920;-74
2022/11/28 18:30:00;;;;;;;47.98;29.80;;;;;;;1.40;86.68;101383.45;3348128;83;21025;-73
2022/11/28 18:34:51;;;;;;;43.23;25.72;;;;;;;1.36;86.71;101385.33;3366551;82;21089;-73
2022/11/28 18:39:42;;;;;;;55.60;30.23;;;;;;;1.35;86.67;101382.27;3368769;82;20949;-73
2022/11/28 18:44:35;;;;;;;50.15;26.60;;;;;;;1.33;86.55;101386.41;3359063;83;22005;-75
2022/11/28 18:49:26;;;;;;;41.90;25.05;;;;;;;1.31;86.46;101392.70;3301897;82;23472;-74
2022/11/28 18:54:18;;;;;;;40.28;24.32;;;;;;;1.27;86.39;101392.39;3336109;83;33656;-74
2022/11/28 18:59:10;;;;;;;42.03;23.83;;;;;;;1.26;86.47;101390.64;3355921;82;21010;-73
2022/11/28 19:04:08;;;;;;;43.10;24.65;;;;;;;1.24;86.22;101393.09;3366671;82;21295;-73
2022/11/28 19:09:02;;;;;;;39.92;24.85;;;;;;;1.24;86.45;101396.94;3347347;83;21010;-74
2022/11/28 19:14:13;;;;;;;37.53;22.85;;;;;;;1.27;86.37;101391.11;3364003;83;21764;-73
2022/11/28 19:19:05;;;;;;;37.70;23.73;;;;;;;1.26;86.22;101389.36;3358580;82;21573;-73
2022/11/28 19:23:59;;;;;;;44.55;23.20;;;;;;;1.26;86.21;101400.88;3383562;83;21006;-74
2022/11/28 19:28:52;;;;;;;38.02;22.45;;;;;;;1.26;86.11;101394.48;3383035;83;22473;-73
2022/11/28 19:33:43;;;;;;;40.48;24.12;;;;;;;1.27;86.21;101409.95;3331646;83;21033;-74
2022/11/28 19:38:36;;;;;;;35.60;20.23;;;;;;;1.25;85.95;101401.66;3318174;83;21376;-73
2022/11/28 19:43:28;;;;;;;33.70;21.87;;;;;;;1.24;85.87;101397.34;3366759;83;21520;-73
2022/11/28 19:48:19;;;;;;;42.13;22.32;;;;;;;1.20;85.86;101406.87;3328791;83;20923;-73
2022/11/28 19:53:10;;;;;;;41.18;22.25;;;;;;;1.20;85.87;101408.15;3337559;83;21504;-73
2022/11/28 19:58:02;;;;;;;42.60;22.48;;;;;;;1.20;85.89;101403.02;3325303;83;21026;-73
2022/11/28 20:02:53;;;;;;;37.20;22.62;;;;;;;1.19;85.72;101399.98;3339249;83;21556;-73
2022/11/28 20:07:45;;;;;;;28.35;19.10;;;;;;;1.16;85.71;101390.81;3347683;83;21017;-74
2022/11/28 20:12:36;;;;;;;28.35;17.57;;;;;;;1.13;85.56;101392.39;3345215;83;21415;-74
2022/11/28 20:17:28;;;;;;;26.80;15.78;;;;;;;1.06;85.09;101392.78;3355061;83;20978;-74
2022/11/28 20:22:21;;;;;;;30.48;18.17;;;;;;;1.01;85.00;101406.94;3326471;83;21504;-73
2022/11/28 20:27:12;;;;;;;26.23;15.85;;;;;;;1.01;85.29;101403.10;3334964;83;21556;-73
2022/11/28 20:32:03;;;;;;;22.17;14.87;;;;;;;1.00;85.08;101406.44;3365371;83;20990;-74
2022/11/28 20:36:58;;;;;;;29.25;16.55;;;;;;;1.00;85.08;101405.16;3322149;83;20974;-73
2022/11/28 20:41:49;;;;;;;25.77;14.78;;;;;;;1.03;85.18;101411.77;3327069;83;20946;-73
2022/11/28 20:46:42;;;;;;;23.50;15.53;;;;;;;1.04;85.01;101407.53;3337786;83;21026;-74
2022/11/28 20:51:35;;;;;;;23.90;15.08;;;;;;;1.02;84.96;101421.53;3339513;83;20982;-73
2022/11/28 20:56:30;;;;;;;20.97;13.90;;;;;;;0.99;84.77;101412.36;3333248;83;21519;-73
2022/11/28 21:01:25;;;;;;;25.92;14.60;;;;;;;0.99;84.69;101414.92;3323620;83;21027;-74
2022/11/28 21:06:17;;;;;;;26.10;14.95;;;;;;;0.99;84.75;101405.08;3337937;83;21025;-74
2022/11/28 21:11:13;;;;;;;23.07;14.98;;;;;;;0.94;84.77;101407.32;3322306;83;20994;-74
2022/11/28 21:16:08;;;;;;;24.52;14.93;;;;;;;0.93;84.83;101404.25;3330258;83;22781;-74
2022/11/28 21:21:07;;;;;;;21.93;14.30;;;;;;;0.90;84.83;101404.95;3350348;82;21033;-73
2022/11/28 21:26:18;;;;;;;25.77;15.18;;;;;;;0.88;84.61;101405.65;3383246;82;21063;-73
2022/11/28 21:31:18;;;;;;;24.67;16.62;;;;;;;0.84;84.83;101406.20;3374935;82;21044;-74
2022/11/28 21:36:22;;;;;;;27.93;14.73;;;;;;;0.84;84.75;101408.77;3372143;82;21004;-75
2022/11/28 21:41:45;;;;;;;21.55;14.28;;;;;;;0.84;84.95;101410.05;3373024;82;21126;-75
2022/11/28 21:46:26;;;;;;;26.40;16.25;;;;;;;0.85;85.00;101416.95;3394341;82;21468;-73
2022/11/28 21:51:21;;;;;;;28.17;16.87;;;;;;;0.84;84.96;101416.44;3346086;82;20985;-73
2022/11/28 21:56:13;;;;;;;29.20;16.45;;;;;;;0.83;84.97;101410.84;3372898;82;21013;-73
2022/11/28 22:01:11;;;;;;;31.50;17.98;;;;;;;0.80;85.00;101401.67;3367588;82;21457;-73
2022/11/28 22:06:19;;;;;;;29.55;16.97;;;;;;;0.80;85.07;101400.39;3400604;82;21241;-72
2022/11/28 22:11:12;;;;;;;27.22;16.20;;;;;;;0.78;85.12;101399.00;3394584;82;20955;-73
2022/11/28 22:16:15;;;;;;;29.32;18.55;;;;;;;0.75;85.07;101398.42;3369006;82;21591;-73
2022/11/28 22:21:08;;;;;;;27.67;16.82;;;;;;;0.70;85.00;101394.66;3366843;82;21016;-73
2022/11/28 22:26:00;;;;;;;26.75;16.55;;;;;;;0.68;85.12;101385.99;3374284;82;21033;-73
2022/11/28 22:30:52;;;;;;;24.63;16.67;;;;;;;0.62;85.02;101381.72;3379836;82;22680;-73
2022/11/28 22:35:44;;;;;;;26.57;17.07;;;;;;;0.58;85.21;101387.42;3372901;82;21572;-74
2022/11/28 22:40:37;;;;;;;31.80;18.12;;;;;;;0.57;85.29;101389.47;3350451;82;21117;-73
2022/11/28 22:45:28;;;;;;;28.80;18.77;;;;;;;0.56;85.21;101387.72;3371849;82;21014;-73
2022/11/28 22:50:20;;;;;;;27.25;17.67;;;;;;;0.57;85.20;101389.47;3364051;82;20945;-73